Time;durP1;ratioP1;P1;durP2;ratioP2;P2;SDS_P1;SDS_P2;PMS_P1;PMS_P2;Temp;Humidity;BMP_temperature;BMP_pressure;BME280_temperature;BME280_humidity;BME280_pressure;Samples;Min_cycle;Max_cycle;Signal;HPM_P1;HPM_P2
2023/01/21 00:02:30;;;;;;;24.50;11.50;;;;;;;3.56;77.61;100942.03;10284512;28;20167;-60
2023/01/21 00:07:32;;;;;;;29.02;13.07;;;;;;;3.57;77.61;100951.72;10274486;28;20062;-60
2023/01/21 00:12:33;;;;;;;32.72;14.45;;;;;;;3.59;77.70;100948.94;10282215;28;20137;-60
2023/01/21 00:17:35;;;;;;;27.65;13.88;;;;;;;3.61;77.70;100954.97;10285547;28;20081;-60
2023/01/21 00:22:36;;;;;;;28.83;13.48;;;;;;;3.56;77.53;100957.16;10277105;28;20364;-60
2023/01/21 00:27:38;;;;;;;33.08;15.25;;;;;;;3.55;77.46;100964.28;10285491;28;20066;-61
2023/01/21 00:32:39;;;;;;;32.97;15.43;;;;;;;3.53;77.39;100968.84;10277923;28;20071;-60
2023/01/21 00:37:41;;;;;;;28.45;13.32;;;;;;;3.48;77.79;100976.34;10273749;28;20058;-60
2023/01/21 00:42:42;;;;;;;35.25;15.38;;;;;;;3.48;77.81;100979.00;10289632;28;20077;-60
2023/01/21 00:47:43;;;;;;;30.42;13.45;;;;;;;3.42;77.74;100983.94;10286351;28;20488;-60
2023/01/21 00:52:45;;;;;;;33.83;14.70;;;;;;;3.27;78.04;100996.53;10289669;28;20161;-59
2023/01/21 00:57:46;;;;;;;32.28;12.93;;;;;;;3.22;77.69;101002.19;10288230;28;20122;-60
2023/01/21 01:02:48;;;;;;;27.27;13.93;;;;;;;3.21;77.59;101016.41;10280184;28;20046;-60
2023/01/21 01:07:49;;;;;;;28.55;13.27;;;;;;;3.07;77.25;101019.22;10282460;28;20066;-60
2023/01/21 01:12:51;;;;;;;28.00;13.55;;;;;;;2.97;77.41;101027.00;10277807;28;20153;-59
2023/01/21 01:17:52;;;;;;;32.35;13.70;;;;;;;2.80;77.19;101030.84;10278891;28;20067;-59
2023/01/21 01:22:54;;;;;;;33.28;13.77;;;;;;;2.76;77.19;101046.19;10282347;28;20130;-59
2023/01/21 01:27:55;;;;;;;25.13;12.00;;;;;;;2.60;76.72;101050.84;10274952;28;20078;-59
2023/01/21 01:32:56;;;;;;;27.08;12.65;;;;;;;2.45;77.12;101062.50;10272738;28;20078;-59
2023/01/21 01:37:59;;;;;;;29.27;12.98;;;;;;;2.22;76.97;101072.06;10263426;28;20077;-59
2023/01/21 01:43:00;;;;;;;28.38;12.52;;;;;;;2.03;77.02;101081.25;10288017;28;20164;-60
2023/01/21 01:48:05;;;;;;;29.73;14.27;;;;;;;1.87;77.14;101088.53;10285791;28;20074;-59
2023/01/21 01:53:07;;;;;;;31.23;13.82;;;;;;;1.79;77.33;101095.19;10283142;28;20146;-59
2023/01/21 01:58:12;;;;;;;33.33;13.68;;;;;;;1.71;77.13;101100.13;10281846;28;20138;-59
2023/01/21 02:08:36;;;;;;;27.58;12.65;;;;;;;1.56;76.79;101111.72;10312705;28;20046;-58
2023/01/21 02:13:38;;;;;;;29.98;13.23;;;;;;;1.47;76.64;101125.59;10308188;28;20051;-59
2023/01/21 02:18:51;;;;;;;30.33;13.55;;;;;;;1.46;77.00;101129.16;10316303;28;20043;-58
2023/01/21 02:24:06;;;;;;;31.83;14.07;;;;;;;1.30;77.08;101138.06;10318098;28;20042;-59
2023/01/21 02:29:34;;;;;;;33.30;12.27;;;;;;;1.14;76.97;101127.59;10316694;28;20061;-58
2023/01/21 02:35:15;;;;;;;28.17;11.77;;;;;;;0.82;76.95;101134.06;10307091;28;20055;-57
2023/01/21 02:40:45;;;;;;;37.75;13.35;;;;;;;0.83;76.09;101143.69;10289552;28;20055;-58
2023/01/21 02:45:54;;;;;;;25.90;12.15;;;;;;;0.79;75.85;101146.53;10300493;28;20109;-59
2023/01/21 02:50:55;;;;;;;32.85;12.65;;;;;;;0.70;76.71;101162.09;10298801;28;20059;-58
2023/01/21 02:56:20;;;;;;;30.95;12.00;;;;;;;0.66;75.97;101156.16;10294663;28;20065;-60
2023/01/21 03:01:43;;;;;;;30.30;11.45;;;;;;;0.56;75.78;101161.13;10308813;28;20054;-58
2023/01/21 03:06:50;;;;;;;24.73;11.60;;;;;;;0.45;76.47;101166.19;10305476;28;20107;-58
2023/01/21 03:12:02;;;;;;;25.00;11.70;;;;;;;0.36;75.92;101182.63;10307694;28;20050;-59
2023/01/21 03:17:12;;;;;;;27.67;11.02;;;;;;;0.30;76.68;101178.53;10310604;28;20053;-57
2023/01/21 03:22:19;;;;;;;22.42;10.00;;;;;;;0.27;76.85;101191.94;10285222;28;20051;-58
2023/01/21 03:27:24;;;;;;;27.38;11.95;;;;;;;0.23;76.66;101194.84;10304060;28;20055;-58
2023/01/21 03:32:30;;;;;;;23.80;9.88;;;;;;;0.16;76.79;101200.50;10304366;28;20083;-58
2023/01/21 03:37:53;;;;;;;23.92;10.43;;;;;;;0.17;76.36;101201.34;10302418;28;20061;-58
2023/01/21 03:42:55;;;;;;;25.17;10.80;;;;;;;0.09;76.25;101200.94;10304028;28;20613;-61
2023/01/21 03:48:03;;;;;;;25.42;10.77;;;;;;;0.05;76.69;101202.03;10310662;28;20054;-57
2023/01/21 03:53:05;;;;;;;25.48;11.23;;;;;;;-0.01;76.04;101197.94;10308301;28;20055;-60
2023/01/21 03:58:07;;;;;;;25.13;10.88;;;;;;;-0.12;76.37;101206.50;10308892;28;20054;-59
2023/01/21 04:03:08;;;;;;;27.17;10.82;;;;;;;-0.09;77.18;101210.75;10302996;28;20051;-58
2023/01/21 04:08:09;;;;;;;28.23;11.88;;;;;;;-0.14;76.86;101213.63;10303006;28;20743;-58
2023/01/21 04:13:11;;;;;;;26.50;11.32;;;;;;;-0.11;76.64;101204.69;10284178;28;20054;-60
2023/01/21 04:18:12;;;;;;;31.42;11.35;;;;;;;-0.13;76.79;101215.34;10311716;28;20046;-58
2023/01/21 04:23:13;;;;;;;24.25;11.30;;;;;;;-0.10;76.68;101219.59;10309660;28;20058;-57
2023/01/21 04:28:15;;;;;;;26.65;11.98;;;;;;;-0.09;76.09;101205.47;10299472;28;20118;-59
2023/01/21 04:33:17;;;;;;;31.02;13.20;;;;;;;-0.13;76.53;101220.63;10304463;28;20059;-60
2023/01/21 04:38:18;;;;;;;27.55;11.88;;;;;;;-0.19;76.11;101210.41;10304923;28;20058;-60
2023/01/21 04:43:20;;;;;;;33.95;13.30;;;;;;;-0.23;76.45;101215.00;10293883;28;20055;-59
2023/01/21 04:48:21;;;;;;;29.58;12.30;;;;;;;-0.21;76.39;101226.34;10314026;28;20090;-58
2023/01/21 04:53:22;;;;;;;29.92;12.30;;;;;;;-0.26;76.75;101230.16;10294904;28;20058;-59
2023/01/21 04:58:25;;;;;;;35.10;13.65;;;;;;;-0.28;76.32;101224.97;10309904;28;20055;-57
2023/01/21 05:03:26;;;;;;;28.85;11.88;;;;;;;-0.31;76.47;101232.22;10306240;28;20090;-59
2023/01/21 05:08:28;;;;;;;34.25;12.63;;;;;;;-0.32;76.66;101236.63;10312974;28;20050;-58
2023/01/21 05:13:29;;;;;;;30.60;12.07;;;;;;;-0.29;77.30;101238.28;10305149;28;20054;-58
2023/01/21 05:18:30;;;;;;;31.20;12.32;;;;;;;-0.28;77.18;101251.38;10312241;28;20098;-60
2023/01/21 05:23:32;;;;;;;32.72;12.25;;;;;;;-0.25;77.11;101247.75;10310148;28;20277;-60
2023/01/21 05:28:33;;;;;;;33.47;12.45;;;;;;;-0.20;77.33;101250.97;10315734;28;20051;-59
2023/01/21 05:33:35;;;;;;;27.95;11.98;;;;;;;-0.23;77.92;101253.78;10303270;28;20059;-57
2023/01/21 05:38:36;;;;;;;33.20;13.00;;;;;;;-0.14;77.47;101255.91;10306533;28;20090;-57
2023/01/21 05:43:37;;;;;;;31.98;11.90;;;;;;;-0.10;77.65;101259.25;10317692;28;20051;-57
2023/01/21 05:48:39;;;;;;;30.05;12.15;;;;;;;-0.04;77.59;101261.53;10314068;28;20044;-58
2023/01/21 05:53:40;;;;;;;30.17;11.38;;;;;;;0.04;77.75;101275.19;10308135;28;20054;-59
2023/01/21 05:58:41;;;;;;;29.38;11.18;;;;;;;0.01;78.27;101275.34;10310654;28;20429;-59
2023/01/21 06:03:43;;;;;;;24.98;10.90;;;;;;;0.03;78.03;101278.78;10312563;28;20063;-61
2023/01/21 06:08:44;;;;;;;33.15;12.63;;;;;;;0.10;77.75;101282.78;10295859;28;20055;-59
2023/01/21 06:13:45;;;;;;;27.80;11.40;;;;;;;0.11;77.24;101284.47;10310061;28;20046;-59
2023/01/21 06:18:47;;;;;;;28.17;12.57;;;;;;;0.10;77.64;101303.06;10299920;28;20055;-60
2023/01/21 06:23:48;;;;;;;28.52;11.40;;;;;;;0.08;76.64;101291.72;10296831;28;20064;-60
2023/01/21 06:28:49;;;;;;;30.00;13.52;;;;;;;0.11;76.55;101296.84;10310208;28;20574;-59
2023/01/21 06:33:51;;;;;;;29.88;12.13;;;;;;;0.10;76.56;101298.66;10304281;28;20063;-57
2023/01/21 06:38:52;;;;;;;29.45;12.73;;;;;;;0.09;76.08;101309.31;10315153;28;20207;-59
2023/01/21 06:43:54;;;;;;;30.45;11.50;;;;;;;0.05;76.63;101315.69;10317201;28;20103;-57
2023/01/21 06:48:55;;;;;;;32.03;13.27;;;;;;;-0.05;76.80;101329.41;10312942;28;20608;-58
2023/01/21 06:53:57;;;;;;;32.95;12.48;;;;;;;-0.14;76.86;101329.88;10318917;28;20082;-56
2023/01/21 06:58:58;;;;;;;28.27;12.02;;;;;;;-0.22;76.52;101338.25;10309580;28;20057;-59
2023/01/21 07:04:00;;;;;;;31.77;13.27;;;;;;;-0.29;77.09;101339.50;10312035;28;20051;-58
2023/01/21 07:09:02;;;;;;;36.55;13.52;;;;;;;-0.28;76.59;101351.75;10316845;28;20054;-59
2023/01/21 07:14:04;;;;;;;26.63;11.93;;;;;;;-0.20;77.03;101351.34;10327001;23;20481;-87
2023/01/21 07:19:05;;;;;;;29.20;12.13;;;;;;;-0.05;76.67;101361.13;10291005;28;20058;-87
2023/01/21 07:24:08;;;;;;;31.80;12.73;;;;;;;0.10;76.87;101358.56;10297232;28;20157;-87
2023/01/21 07:29:09;;;;;;;27.88;12.25;;;;;;;0.30;76.54;101357.50;10296141;28;20069;-87
2023/01/21 07:34:11;;;;;;;30.98;12.70;;;;;;;0.45;76.60;101359.28;10297102;28;20502;-88
2023/01/21 07:39:12;;;;;;;28.83;11.52;;;;;;;0.59;76.48;101361.13;10291594;28;20066;-88
2023/01/21 07:44:16;;;;;;;26.02;12.15;;;;;;;0.81;76.68;101367.84;10270861;28;20489;-87
2023/01/21 07:49:18;;;;;;;27.75;12.25;;;;;;;0.98;76.74;101371.25;10271303;28;20146;-88
2023/01/21 07:54:20;;;;;;;18.67;9.02;;;;;;;0.99;77.56;101362.38;10267608;28;20039;-89
2023/01/21 07:59:21;;;;;;;20.52;9.00;;;;;;;1.01;77.48;101364.06;10284282;28;20061;-87
2023/01/21 08:04:24;;;;;;;20.13;8.02;;;;;;;1.03;77.43;101368.34;10281838;28;20122;-88
2023/01/21 08:09:26;;;;;;;20.65;9.15;;;;;;;1.05;77.31;101376.19;10276233;28;20062;-88
2023/01/21 08:14:28;;;;;;;22.92;9.27;;;;;;;1.07;77.82;101372.53;10296618;28;20043;-88
2023/01/21 08:25:27;;;;;;;21.05;9.30;;;;;;;1.11;77.56;101379.34;2545298;23;20069;-90
2023/01/21 08:30:29;;;;;;;26.20;10.40;;;;;;;1.01;77.62;101383.47;10319136;28;20062;-88
2023/01/21 08:35:31;;;;;;;19.30;8.10;;;;;;;1.09;76.86;101381.22;10319250;28;20118;-90
2023/01/21 08:40:33;;;;;;;18.77;7.65;;;;;;;1.11;77.81;101386.44;10308053;28;20114;-90
2023/01/21 08:45:35;;;;;;;16.95;8.07;;;;;;;1.11;76.93;101392.56;10308070;28;20114;-92
2023/01/21 08:50:36;;;;;;;14.23;6.10;;;;;;;1.14;77.46;101410.06;10318547;28;20058;-89
2023/01/21 08:55:38;;;;;;;11.77;4.82;;;;;;;1.12;76.81;101406.66;10322610;28;20666;-88
2023/01/21 09:00:40;;;;;;;15.93;7.32;;;;;;;1.24;76.70;101413.88;10322097;23;20062;-62
2023/01/21 09:11:51;;;;;;;20.80;8.98;;;;;;;1.30;76.46;101431.22;2268242;23;20062;-91
2023/01/21 09:16:58;;;;;;;16.75;7.18;;;;;;;1.18;76.06;101436.31;10256177;28;20053;-94
2023/01/21 09:22:08;;;;;;;17.92;7.70;;;;;;;1.07;76.64;101444.00;10651747;23;20047;-89
2023/01/21 09:27:10;;;;;;;20.50;8.13;;;;;;;1.19;76.50;101450.38;10509683;23;20058;-85
2023/01/21 09:32:19;;;;;;;15.75;7.22;;;;;;;1.25;76.64;101457.13;10263071;28;20046;-89
2023/01/21 09:37:20;;;;;;;20.25;7.90;;;;;;;1.43;76.11;101457.84;10253139;28;20043;-87
2023/01/21 09:42:25;;;;;;;19.25;7.88;;;;;;;1.61;76.29;101466.53;10268336;28;20055;-88
2023/01/21 09:47:30;;;;;;;19.67;8.18;;;;;;;1.76;76.52;101473.56;10268421;28;20114;-88
2023/01/21 09:52:41;;;;;;;13.65;6.43;;;;;;;1.94;76.41;101461.00;10266676;28;20053;-89
2023/01/21 09:58:12;;;;;;;20.35;6.78;;;;;;;1.96;76.22;101477.69;10267589;28;20131;-86
2023/01/21 10:04:02;;;;;;;25.33;8.68;;;;;;;1.94;76.25;101461.84;10251354;28;20062;-88
2023/01/21 10:09:55;;;;;;;16.02;6.50;;;;;;;1.99;75.84;101464.22;10224009;28;20041;-91
2023/01/21 10:15:09;;;;;;;23.63;9.30;;;;;;;2.02;76.19;101463.19;10214809;28;20049;-92
2023/01/21 10:42:30;;;;;;;18.02;7.18;;;;;;;2.36;75.95;101454.00;11624028;23;20375;-90
2023/01/21 10:47:47;;;;;;;16.15;8.15;;;;;;;2.42;75.92;101456.28;10517112;23;20093;-91
2023/01/21 10:59:12;;;;;;;24.20;9.88;;;;;;;2.65;75.65;101462.81;2590149;23;20124;-92
2023/01/21 11:27:43;;;;;;;16.27;6.65;;;;;;;2.64;75.91;101477.00;10468583;23;20050;-89
2023/01/21 16:15:04;;;;;;;8.07;4.07;;;;;;;3.18;73.60;101516.94;10667208;23;20086;-86
2023/01/21 16:20:10;;;;;;;9.75;4.55;;;;;;;3.23;73.90;101513.97;10270210;28;20683;-88
2023/01/21 16:25:22;;;;;;;7.90;4.55;;;;;;;3.27;73.73;101509.31;10277258;28;20429;-87
2023/01/21 16:30:29;;;;;;;7.97;3.60;;;;;;;3.26;73.68;101499.63;10301508;28;20054;-89
2023/01/21 16:35:46;;;;;;;11.68;4.70;;;;;;;3.23;73.64;101502.50;10275279;28;20085;-89
2023/01/21 16:40:49;;;;;;;8.05;4.57;;;;;;;3.22;73.79;101492.81;10290656;28;20182;-89
2023/01/21 16:45:54;;;;;;;8.45;3.97;;;;;;;3.19;73.13;101488.56;10282296;28;20482;-88
2023/01/21 16:50:57;;;;;;;7.75;3.90;;;;;;;3.11;73.78;101498.81;10286720;28;20058;-88
2023/01/21 16:55:59;;;;;;;10.43;4.35;;;;;;;3.13;73.29;101491.63;10266988;28;20054;-88
2023/01/21 17:01:14;;;;;;;8.45;4.13;;;;;;;3.07;73.68;101484.88;10267633;28;20051;-88
2023/01/21 17:06:32;;;;;;;10.77;5.07;;;;;;;3.14;73.79;101480.91;10252278;28;20055;-90
2023/01/21 17:11:35;;;;;;;9.23;3.85;;;;;;;3.02;73.57;101472.84;10303399;23;20047;-60
2023/01/21 17:16:39;;;;;;;11.60;4.05;;;;;;;3.05;73.26;101478.81;10327245;28;20104;-60
2023/01/21 17:21:45;;;;;;;8.32;3.92;;;;;;;3.04;73.40;101478.91;10328684;28;20051;-59
2023/01/21 17:26:50;;;;;;;10.60;4.75;;;;;;;3.04;73.41;101478.91;10330272;28;20069;-61
2023/01/21 17:32:00;;;;;;;10.82;5.10;;;;;;;3.10;73.46;101484.69;10332566;28;20054;-60
2023/01/21 17:37:40;;;;;;;10.77;4.40;;;;;;;3.18;73.59;101501.00;10338021;28;20066;-59
2023/01/21 17:42:41;;;;;;;7.10;4.05;;;;;;;3.17;73.11;101501.09;10331439;28;20059;-60
2023/01/21 17:47:42;;;;;;;9.20;4.22;;;;;;;3.15;73.61;101503.00;10333753;28;20042;-60
2023/01/21 17:53:12;;;;;;;9.75;5.03;;;;;;;3.10;73.24;101502.41;10319520;28;20049;-59
2023/01/21 17:58:34;;;;;;;8.48;4.00;;;;;;;3.09;73.77;101506.03;10324745;28;20061;-58
2023/01/21 18:03:36;;;;;;;11.73;5.10;;;;;;;3.13;73.29;101500.44;10325795;28;20592;-58
2023/01/21 18:08:37;;;;;;;9.93;4.13;;;;;;;3.14;73.60;101501.28;10338522;28;20046;-62
2023/01/21 18:13:38;;;;;;;7.80;4.15;;;;;;;3.13;73.45;101500.44;10337193;28;20047;-60
2023/01/21 18:18:40;;;;;;;11.93;5.50;;;;;;;3.20;73.34;101500.03;10334458;28;20046;-59
2023/01/21 18:23:42;;;;;;;10.82;4.05;;;;;;;3.25;73.49;101488.16;10333506;28;20054;-60
2023/01/21 18:28:43;;;;;;;9.88;3.83;;;;;;;3.26;73.30;101486.34;10334716;28;20038;-60
2023/01/21 18:33:44;;;;;;;11.68;4.43;;;;;;;3.26;73.45;101487.22;10332713;28;20050;-60
2023/01/21 18:38:46;;;;;;;12.05;5.10;;;;;;;3.24;73.14;101486.47;10331333;28;20057;-59
2023/01/21 18:43:47;;;;;;;9.13;4.78;;;;;;;3.25;73.49;101489.97;10329129;28;20649;-59
2023/01/21 18:48:48;;;;;;;7.03;3.53;;;;;;;3.24;73.17;101489.13;10326196;28;20058;-59
2023/01/21 18:53:50;;;;;;;8.23;4.00;;;;;;;3.26;73.45;101495.19;10322566;28;20045;-59
2023/01/21 18:58:51;;;;;;;11.43;3.90;;;;;;;3.33;73.31;101488.50;10322657;28;20047;-58
2023/01/21 19:03:53;;;;;;;7.45;3.38;;;;;;;3.34;73.13;101484.06;10321472;28;20059;-60
2023/01/21 19:08:55;;;;;;;10.77;3.83;;;;;;;3.31;73.31;101489.56;10320807;28;20156;-59
2023/01/21 19:13:56;;;;;;;13.13;4.95;;;;;;;3.30;73.17;101491.38;10326151;28;20097;-60
2023/01/21 19:18:57;;;;;;;8.38;4.28;;;;;;;3.33;72.97;101485.00;10318453;28;20051;-60
2023/01/21 19:23:59;;;;;;;12.45;4.45;;;;;;;3.32;73.33;101478.84;10326742;28;20049;-63
2023/01/21 19:29:03;;;;;;;9.55;4.30;;;;;;;3.33;73.23;101480.53;10329749;28;20066;-61
2023/01/21 19:34:05;;;;;;;7.20;3.30;;;;;;;3.33;73.02;101485.00;10328114;28;20051;-58
2023/01/21 19:39:21;;;;;;;7.18;3.30;;;;;;;3.36;72.90;101477.69;10332080;28;20053;-60
2023/01/21 19:44:22;;;;;;;10.45;4.38;;;;;;;3.35;72.81;101461.81;10325545;28;20057;-59
2023/01/21 19:49:23;;;;;;;6.63;2.80;;;;;;;3.43;72.96;101454.19;10322918;28;20050;-62
2023/01/21 19:54:25;;;;;;;11.32;3.92;;;;;;;3.40;72.93;101458.84;10324367;28;20078;-63
2023/01/21 19:59:26;;;;;;;7.18;3.53;;;;;;;3.52;72.71;101458.91;10327702;28;20042;-59
2023/01/21 20:04:27;;;;;;;8.38;3.08;;;;;;;3.48;73.03;101448.59;10325773;28;20054;-60
2023/01/21 20:09:30;;;;;;;9.95;4.15;;;;;;;3.58;72.62;101462.97;10329976;28;20065;-61
2023/01/21 20:14:32;;;;;;;9.60;3.75;;;;;;;3.60;72.74;101463.69;10328001;28;20054;-59
2023/01/21 20:19:33;;;;;;;7.60;3.45;;;;;;;3.64;72.47;101475.84;10324623;28;20051;-59
2023/01/21 20:24:34;;;;;;;7.45;3.58;;;;;;;3.72;72.58;101462.03;10315109;28;20054;-59
2023/01/21 20:29:36;;;;;;;10.77;3.25;;;;;;;3.75;72.32;101468.00;10317082;28;20057;-58
2023/01/21 20:34:40;;;;;;;10.50;4.30;;;;;;;3.81;72.54;101460.53;10323005;28;20046;-59
2023/01/21 20:39:41;;;;;;;9.05;3.92;;;;;;;3.83;72.47;101470.13;10333705;28;20043;-59
2023/01/21 20:44:42;;;;;;;12.80;4.95;;;;;;;3.73;72.32;101456.59;10334674;28;20046;-62
2023/01/21 20:49:44;;;;;;;7.68;3.60;;;;;;;3.72;72.58;101452.22;10325467;28;20129;-59
2023/01/21 20:54:45;;;;;;;10.10;4.03;;;;;;;3.70;72.43;101440.84;10323374;28;20055;-60
2023/01/21 20:59:46;;;;;;;9.35;4.47;;;;;;;3.67;72.61;101440.19;10326659;28;20046;-59
2023/01/21 21:04:48;;;;;;;9.38;3.80;;;;;;;3.75;72.30;101433.41;10323182;28;20054;-59
2023/01/21 21:09:49;;;;;;;9.02;4.32;;;;;;;3.72;72.27;101430.97;10326039;28;20046;-60
2023/01/21 21:14:50;;;;;;;10.45;4.60;;;;;;;3.78;72.17;101427.88;10331473;28;20058;-57
2023/01/21 21:19:52;;;;;;;9.32;4.20;;;;;;;3.72;72.51;101420.31;10331880;28;20050;-58
2023/01/21 21:24:53;;;;;;;14.15;5.25;;;;;;;3.72;72.13;101414.16;10328203;28;20051;-60
2023/01/21 21:29:58;;;;;;;10.35;4.82;;;;;;;3.65;72.51;101419.03;10337447;28;20050;-60
2023/01/21 21:34:59;;;;;;;11.75;5.15;;;;;;;3.54;72.60;101418.94;10332817;28;20050;-61
2023/01/21 21:40:01;;;;;;;10.30;4.85;;;;;;;3.50;72.99;101418.28;10330287;28;20081;-58
2023/01/21 21:45:02;;;;;;;8.07;4.10;;;;;;;3.45;73.13;101408.91;10329447;28;20046;-60
2023/01/21 21:50:04;;;;;;;15.93;6.15;;;;;;;3.41;73.47;101404.75;10334939;28;20053;-61
2023/01/21 21:55:09;;;;;;;11.80;5.57;;;;;;;3.40;73.22;101395.06;10335810;28;20085;-61
2023/01/21 22:00:11;;;;;;;15.15;6.55;;;;;;;3.35;73.65;101392.72;10333471;28;20042;-61
2023/01/21 22:05:13;;;;;;;16.48;6.28;;;;;;;3.45;73.73;101380.50;10337468;28;20080;-58
2023/01/21 22:10:14;;;;;;;15.02;6.22;;;;;;;3.44;73.88;101380.66;10325238;28;20069;-61
2023/01/21 22:15:16;;;;;;;13.23;6.00;;;;;;;3.51;73.83;101392.53;10328193;28;20341;-58
2023/01/21 22:20:18;;;;;;;13.48;5.47;;;;;;;3.49;74.07;101373.19;10319945;28;20046;-59
2023/01/21 22:25:19;;;;;;;13.80;6.00;;;;;;;3.52;73.84;101379.16;10328377;28;20050;-61
2023/01/21 22:30:21;;;;;;;13.95;5.30;;;;;;;3.54;73.69;101373.75;10322024;28;20051;-59
2023/01/21 22:35:23;;;;;;;15.00;5.55;;;;;;;3.47;74.38;101375.94;10319335;28;20114;-60
2023/01/21 22:40:24;;;;;;;11.63;6.53;;;;;;;3.38;74.32;101374.78;10313686;28;20065;-59
2023/01/21 22:45:26;;;;;;;14.05;5.47;;;;;;;3.43;74.21;101368.28;10310868;28;20050;-60
2023/01/21 22:50:28;;;;;;;11.63;4.70;;;;;;;3.42;74.27;101356.81;10316343;28;20117;-58
2023/01/21 22:55:29;;;;;;;14.32;5.55;;;;;;;3.40;74.49;101363.19;10307015;28;20541;-58
2023/01/21 23:00:39;;;;;;;11.32;4.93;;;;;;;3.37;74.14;101354.47;10312636;28;20054;-59
2023/01/21 23:05:41;;;;;;;10.38;5.57;;;;;;;3.37;74.52;101348.31;10316133;28;20072;-58
2023/01/21 23:10:43;;;;;;;11.05;5.45;;;;;;;3.37;74.31;101351.81;10315325;28;20066;-59
2023/01/21 23:15:45;;;;;;;9.07;3.65;;;;;;;3.40;74.23;101345.44;10318027;28;20059;-59
2023/01/21 23:20:47;;;;;;;15.85;4.97;;;;;;;3.38;74.42;101348.19;10314614;28;20051;-58
2023/01/21 23:25:49;;;;;;;10.07;4.93;;;;;;;3.41;73.92;101343.63;10313658;28;20061;-59
2023/01/21 23:30:50;;;;;;;9.88;5.10;;;;;;;3.34;74.15;101337.91;10296800;28;20081;-57
2023/01/21 23:35:54;;;;;;;9.77;4.00;;;;;;;3.34;74.04;101330.78;10309430;28;20060;-57
2023/01/21 23:40:56;;;;;;;9.13;4.28;;;;;;;3.36;74.17;101336.81;10318279;28;20077;-59
2023/01/21 23:45:58;;;;;;;7.25;3.05;;;;;;;3.34;73.98;101330.78;10298145;28;20482;-58
2023/01/21 23:51:04;;;;;;;9.07;4.18;;;;;;;3.36;73.85;101331.50;10313233;28;20056;-59
2023/01/21 23:56:09;;;;;;;9.93;4.70;;;;;;;3.32;73.73;101335.34;10314103;28;20042;-61
